createdAt,value
2023-05-15T00:00:10.680Z,89.03
2023-05-15T00:01:18.678Z,88.76
2023-05-15T00:02:21.016Z,88.14
2023-05-15T00:03:23.995Z,88.40
2023-05-15T00:04:26.655Z,88.69
2023-05-15T00:05:30.030Z,88.79
2023-05-15T00:06:33.244Z,88.35
2023-05-15T00:07:36.884Z,88.93
2023-05-15T00:08:38.733Z,89.18
2023-05-15T00:09:42.162Z,88.87
2023-05-15T00:10:57.501Z,88.77
2023-05-15T00:12:04.036Z,89.06
2023-05-15T00:13:06.153Z,89.58
2023-05-15T00:14:09.046Z,89.01
2023-05-15T00:15:11.246Z,88.49
2023-05-15T00:16:14.048Z,89.06
2023-05-15T00:17:16.506Z,88.97
2023-05-15T00:18:19.421Z,89.07
2023-05-15T00:19:21.567Z,89.70
2023-05-15T00:20:24.336Z,89.37
2023-05-15T00:21:26.289Z,88.99
2023-05-15T00:22:30.594Z,88.93
2023-05-15T00:23:32.333Z,89.27
2023-05-15T00:24:35.114Z,89.29
2023-05-15T00:25:36.924Z,89.48
2023-05-15T00:26:39.642Z,89.17
2023-05-15T00:27:41.469Z,89.06
2023-05-15T00:28:44.276Z,89.34
2023-05-15T00:29:46.048Z,89.43
2023-05-15T00:30:48.832Z,89.04
2023-05-15T00:31:50.788Z,89.74
2023-05-15T00:32:53.656Z,89.15
2023-05-15T00:33:55.474Z,89.43
2023-05-15T00:34:58.231Z,89.40
2023-05-15T00:36:00.014Z,89.42
2023-05-15T00:37:02.957Z,89.12
2023-05-15T00:38:08.002Z,89.56
2023-05-15T00:39:13.085Z,89.58
2023-05-15T00:40:21.871Z,89.34
2023-05-15T00:41:26.161Z,89.78
2023-05-15T00:42:28.376Z,89.87
2023-05-15T00:43:32.806Z,89.52
2023-05-15T00:44:34.843Z,89.58
2023-05-15T00:45:37.805Z,89.69
2023-05-15T00:46:40.196Z,89.36
2023-05-15T00:47:43.545Z,89.43
2023-05-15T00:48:46.749Z,89.88
2023-05-15T00:49:50.726Z,90.11
2023-05-15T00:50:54.814Z,89.90
2023-05-15T00:51:58.101Z,89.85
2023-05-15T00:53:00.855Z,90.06
2023-05-15T00:54:05.373Z,89.76
2023-05-15T00:55:07.877Z,90.02
2023-05-15T00:56:12.487Z,90.20
2023-05-15T00:57:15.819Z,89.97
2023-05-15T00:58:19.495Z,90.37
2023-05-15T00:59:22.955Z,90.45
2023-05-15T01:00:26.185Z,90.00
2023-05-15T01:01:33.237Z,90.22
2023-05-15T01:02:36.319Z,90.35
2023-05-15T01:03:38.276Z,90.16
2023-05-15T01:04:41.042Z,89.95
2023-05-15T01:05:43.231Z,90.08
2023-05-15T01:06:45.991Z,90.02
2023-05-15T01:07:52.428Z,90.62
2023-05-15T01:08:57.815Z,90.03
2023-05-15T01:10:01.180Z,90.15
2023-05-15T01:11:05.390Z,90.09
2023-05-15T01:12:08.173Z,90.89
2023-05-15T01:13:11.142Z,90.27
2023-05-15T01:14:12.976Z,90.19
2023-05-15T01:15:15.755Z,90.23
2023-05-15T01:16:21.380Z,90.35
2023-05-15T01:17:24.117Z,90.78
2023-05-15T01:18:31.980Z,91.26
2023-05-15T01:19:35.729Z,91.35
2023-05-15T01:20:47.362Z,91.04
2023-05-15T01:22:11.676Z,90.64
2023-05-15T01:23:17.784Z,90.86
2023-05-15T01:24:36.075Z,90.79
2023-05-15T01:26:13.053Z,90.74
2023-05-15T01:27:19.383Z,92.13
2023-05-15T01:28:28.854Z,91.40
2023-05-15T01:30:00.528Z,90.74
2023-05-15T01:31:06.898Z,91.97
2023-05-15T01:32:17.794Z,91.49
2023-05-15T01:33:23.259Z,91.26
2023-05-15T01:34:32.963Z,91.53
2023-05-15T01:35:39.130Z,91.04
2023-05-15T01:36:46.939Z,91.54
2023-05-15T01:37:51.348Z,91.25
2023-05-15T01:38:55.700Z,91.06
2023-05-15T01:40:00.854Z,92.06
2023-05-15T01:41:08.052Z,91.37
2023-05-15T01:42:11.054Z,91.86
2023-05-15T01:43:19.785Z,91.32
2023-05-15T01:44:26.729Z,91.87
2023-05-15T01:45:30.011Z,91.54
2023-05-15T01:46:32.036Z,91.48
2023-05-15T01:47:38.183Z,91.41
2023-05-15T01:48:40.993Z,91.90
2023-05-15T01:49:44.674Z,91.94
2023-05-15T01:50:51.119Z,91.51
2023-05-15T01:51:57.219Z,91.95
2023-05-15T01:53:01.148Z,90.98
2023-05-15T01:54:04.973Z,91.68
2023-05-15T01:55:09.265Z,91.26
2023-05-15T01:56:13.920Z,91.12
2023-05-15T01:57:16.817Z,91.41
2023-05-15T01:58:21.987Z,92.00
2023-05-15T01:59:25.513Z,92.15
2023-05-15T02:00:28.337Z,92.56
2023-05-15T02:01:31.079Z,92.26
2023-05-15T02:02:34.297Z,92.33
2023-05-15T02:03:36.698Z,91.87
2023-05-15T02:04:39.760Z,91.98
2023-05-15T02:05:42.071Z,92.53
2023-05-15T02:06:45.258Z,92.21
2023-05-15T02:07:47.543Z,92.38
2023-05-15T02:08:52.248Z,92.34
2023-05-15T02:09:55.838Z,92.83
2023-05-15T02:11:00.509Z,91.87
2023-05-15T02:12:02.800Z,92.69
2023-05-15T02:13:26.345Z,92.54
2023-05-15T02:14:29.992Z,92.85
2023-05-15T02:15:33.292Z,92.70
2023-05-15T02:16:35.755Z,92.89
2023-05-15T02:17:38.717Z,91.96
2023-05-15T02:18:41.513Z,92.43
2023-05-15T02:19:44.799Z,92.32
2023-05-15T02:20:46.651Z,92.55
2023-05-15T02:21:49.590Z,92.93
2023-05-15T02:22:51.386Z,92.60
2023-05-15T02:23:54.165Z,92.64
2023-05-15T02:24:56.342Z,92.46
2023-05-15T02:26:15.722Z,92.82
2023-05-15T02:27:21.503Z,92.97
2023-05-15T02:28:30.105Z,93.09
2023-05-15T02:29:38.500Z,92.75
2023-05-15T02:30:45.751Z,92.89
2023-05-15T02:31:54.067Z,92.55
2023-05-15T02:33:00.984Z,93.34
2023-05-15T02:34:11.061Z,93.14
2023-05-15T02:35:18.425Z,93.38
2023-05-15T02:36:21.962Z,93.32
2023-05-15T02:37:28.635Z,93.34
2023-05-15T02:38:34.386Z,93.45
2023-05-15T02:39:37.133Z,93.32
2023-05-15T02:40:40.877Z,93.17
2023-05-15T02:41:43.495Z,92.95
2023-05-15T02:42:47.585Z,93.03
2023-05-15T02:43:52.249Z,93.06
2023-05-15T02:44:55.648Z,92.93
2023-05-15T02:45:59.676Z,93.03
2023-05-15T02:47:03.969Z,93.20
2023-05-15T02:48:15.888Z,93.49
2023-05-15T02:49:18.847Z,93.18
2023-05-15T02:50:21.611Z,92.86
2023-05-15T02:51:24.569Z,93.13
2023-05-15T02:52:26.649Z,93.33
2023-05-15T02:53:29.708Z,93.14
2023-05-15T02:54:31.870Z,93.51
2023-05-15T02:55:35.269Z,93.41
2023-05-15T02:56:37.497Z,93.42
2023-05-15T02:57:40.350Z,93.49
2023-05-15T02:58:42.280Z,93.62
2023-05-15T02:59:46.931Z,93.39
2023-05-15T03:00:48.864Z,93.26
2023-05-15T03:01:52.298Z,93.43
2023-05-15T03:02:54.266Z,93.86
2023-05-15T03:03:57.081Z,94.23
2023-05-15T03:04:59.010Z,93.67
2023-05-15T03:06:01.982Z,93.35
2023-05-15T03:07:04.252Z,93.56
2023-05-15T03:08:07.404Z,94.02
2023-05-15T03:09:09.429Z,93.70
2023-05-15T03:10:12.189Z,93.49
2023-05-15T03:11:14.385Z,93.47
2023-05-15T03:12:17.493Z,94.10
2023-05-15T03:13:19.252Z,93.43
2023-05-15T03:14:21.998Z,93.25
2023-05-15T03:15:25.348Z,93.69
2023-05-15T03:16:28.777Z,93.54
2023-05-15T03:17:30.828Z,93.85
2023-05-15T03:18:33.852Z,93.77
2023-05-15T03:19:35.994Z,93.11
2023-05-15T03:20:38.829Z,93.10
2023-05-15T03:21:40.683Z,93.40
2023-05-15T03:22:43.727Z,93.72
2023-05-15T03:23:45.681Z,94.21
2023-05-15T03:24:49.039Z,93.83
2023-05-15T03:25:51.010Z,93.58
2023-05-15T03:26:54.005Z,94.17
2023-05-15T03:27:55.992Z,94.00
2023-05-15T03:28:59.321Z,93.47
2023-05-15T03:30:01.487Z,94.22
2023-05-15T03:31:05.814Z,93.66
2023-05-15T03:32:07.648Z,94.20
2023-05-15T03:33:10.557Z,94.59
2023-05-15T03:34:12.334Z,94.72
2023-05-15T03:35:15.070Z,94.03
2023-05-15T03:36:17.847Z,93.75
2023-05-15T03:37:19.628Z,94.08
2023-05-15T03:38:22.364Z,94.55
2023-05-15T03:39:24.192Z,94.39
2023-05-15T03:40:26.993Z,94.45
2023-05-15T03:41:28.736Z,94.81
2023-05-15T03:42:31.465Z,94.46
2023-05-15T03:43:33.273Z,94.76
2023-05-15T03:44:36.039Z,94.78
2023-05-15T03:45:38.980Z,94.65
2023-05-15T03:46:43.127Z,95.10
2023-05-15T03:47:46.254Z,94.93
2023-05-15T03:48:49.176Z,94.97
2023-05-15T03:49:50.959Z,95.46
2023-05-15T03:50:53.840Z,95.66
2023-05-15T03:51:56.506Z,95.39
2023-05-15T03:52:59.243Z,95.82
2023-05-15T03:54:01.133Z,95.29
2023-05-15T03:55:06.837Z,95.78
2023-05-15T03:56:08.594Z,96.13
2023-05-15T03:57:11.530Z,95.97
2023-05-15T03:58:13.322Z,95.99
2023-05-15T03:59:16.081Z,95.60
2023-05-15T04:00:19.169Z,95.87
2023-05-15T04:01:23.685Z,95.39
2023-05-15T04:02:26.828Z,95.79
2023-05-15T04:03:29.674Z,95.36
2023-05-15T04:04:31.606Z,95.37
2023-05-15T04:05:34.356Z,95.23
2023-05-15T04:06:36.104Z,96.27
2023-05-15T04:07:39.146Z,95.76
2023-05-15T04:08:41.642Z,95.97
2023-05-15T04:09:44.529Z,95.96
2023-05-15T04:10:46.337Z,95.52
2023-05-15T04:11:49.036Z,95.82
2023-05-15T04:12:51.848Z,95.64
2023-05-15T04:13:54.634Z,96.11
2023-05-15T04:14:56.576Z,96.22
2023-05-15T04:15:59.850Z,96.15
2023-05-15T04:17:01.762Z,96.56
2023-05-15T04:18:06.323Z,96.05
2023-05-15T04:19:08.171Z,96.07
2023-05-15T04:20:12.160Z,96.18
2023-05-15T04:21:13.890Z,96.08
2023-05-15T04:22:16.588Z,97.01
2023-05-15T04:23:18.415Z,96.24
2023-05-15T04:24:21.175Z,96.30
2023-05-15T04:25:24.448Z,96.20
2023-05-15T04:26:27.394Z,95.92
2023-05-15T04:27:29.230Z,95.91
2023-05-15T04:28:32.429Z,96.71
2023-05-15T04:29:34.219Z,96.49
2023-05-15T04:30:36.961Z,96.44
2023-05-15T04:31:38.768Z,96.10
2023-05-15T04:32:42.372Z,96.44
2023-05-15T04:33:45.514Z,96.03
2023-05-15T04:34:48.390Z,96.67
2023-05-15T04:35:50.791Z,97.04
2023-05-15T04:36:53.498Z,97.24
2023-05-15T04:37:55.247Z,97.30
2023-05-15T04:38:57.985Z,97.20
2023-05-15T04:39:59.706Z,97.28
2023-05-15T04:41:02.445Z,96.89
2023-05-15T04:42:05.062Z,97.20
2023-05-15T04:43:08.265Z,96.54
2023-05-15T04:44:10.113Z,96.45
2023-05-15T04:45:13.037Z,96.62
2023-05-15T04:46:14.892Z,96.48
2023-05-15T04:47:17.668Z,97.45
2023-05-15T04:48:19.503Z,97.81
2023-05-15T04:49:23.575Z,97.50
2023-05-15T04:50:25.893Z,97.57
2023-05-15T04:51:28.880Z,97.01
2023-05-15T04:52:30.812Z,97.69
2023-05-15T04:53:33.556Z,97.48
2023-05-15T04:54:35.427Z,97.85
2023-05-15T04:55:38.140Z,97.70
2023-05-15T04:56:39.969Z,98.00
2023-05-15T04:57:42.695Z,97.90
2023-05-15T04:58:44.434Z,97.92
2023-05-15T04:59:47.145Z,97.93
2023-05-15T05:00:49.898Z,97.44
2023-05-15T05:01:51.787Z,97.67
2023-05-15T05:02:54.664Z,97.73
2023-05-15T05:03:56.541Z,97.67
2023-05-15T05:05:00.612Z,97.89
2023-05-15T05:06:02.403Z,97.93
2023-05-15T05:07:05.897Z,97.59
2023-05-15T05:08:07.650Z,97.06
2023-05-15T05:09:10.690Z,96.99
2023-05-15T05:10:13.663Z,96.91
2023-05-15T05:11:16.364Z,97.04
2023-05-15T05:12:18.230Z,96.24
2023-05-15T05:13:20.980Z,95.79
2023-05-15T05:14:22.799Z,96.46
2023-05-15T05:15:25.775Z,96.43
2023-05-15T05:16:27.890Z,96.24
2023-05-15T05:17:30.905Z,95.83
2023-05-15T05:18:32.682Z,96.53
2023-05-15T05:19:35.479Z,96.28
2023-05-15T05:20:38.559Z,96.47
2023-05-15T05:21:41.253Z,96.15
2023-05-15T05:22:43.141Z,95.95
2023-05-15T05:23:47.186Z,96.41
2023-05-15T05:24:48.933Z,96.86
2023-05-15T05:25:51.666Z,96.85
2023-05-15T05:26:54.484Z,96.57
2023-05-15T05:27:57.305Z,96.72
2023-05-15T05:28:59.104Z,96.09
2023-05-15T05:30:03.288Z,96.55
2023-05-15T05:31:05.310Z,96.19
2023-05-15T05:32:08.664Z,95.89
2023-05-15T05:33:10.781Z,96.13
2023-05-15T05:34:13.677Z,96.51
2023-05-15T05:35:15.475Z,96.01
2023-05-15T05:36:19.612Z,95.71
2023-05-15T05:37:21.376Z,96.53
2023-05-15T05:38:24.723Z,96.19
2023-05-15T05:39:26.498Z,96.58
2023-05-15T05:40:29.249Z,96.32
2023-05-15T05:41:31.131Z,96.57
2023-05-15T05:42:33.879Z,97.16
2023-05-15T05:43:35.894Z,96.93
2023-05-15T05:44:38.739Z,97.03
2023-05-15T05:45:41.548Z,96.90
2023-05-15T05:46:43.441Z,96.32
2023-05-15T05:47:46.724Z,96.11
2023-05-15T05:48:48.542Z,96.02
2023-05-15T05:49:51.319Z,96.41
2023-05-15T05:50:53.158Z,96.20
2023-05-15T05:51:57.330Z,96.24
2023-05-15T05:52:59.126Z,96.85
2023-05-15T05:54:01.959Z,97.30
2023-05-15T05:55:05.129Z,96.38
2023-05-15T05:56:08.315Z,95.94
2023-05-15T05:57:10.142Z,95.99
2023-05-15T05:58:24.083Z,96.32
2023-05-15T05:59:27.126Z,95.98
2023-05-15T06:00:30.249Z,95.90
2023-05-15T06:01:32.150Z,96.04
2023-05-15T06:02:34.967Z,96.03
2023-05-15T06:03:38.125Z,96.35
2023-05-15T06:04:41.104Z,96.30
2023-05-15T06:05:42.828Z,96.36
2023-05-15T06:06:46.184Z,96.18
2023-05-15T06:07:50.651Z,96.18
2023-05-15T06:08:54.896Z,96.56
2023-05-15T06:09:59.184Z,97.07
2023-05-15T06:11:01.074Z,97.22
2023-05-15T06:12:04.801Z,97.62
2023-05-15T06:13:06.612Z,98.00
2023-05-15T06:14:09.480Z,97.37
2023-05-15T06:15:13.063Z,97.41
2023-05-15T06:16:14.876Z,97.11
2023-05-15T06:17:17.647Z,96.96
2023-05-15T06:18:19.435Z,96.76
2023-05-15T06:19:22.764Z,96.16
2023-05-15T06:20:25.035Z,96.00
2023-05-15T06:21:27.953Z,95.65
2023-05-15T06:22:32.265Z,95.08
2023-05-15T06:23:36.335Z,95.24
2023-05-15T06:24:38.124Z,95.83
2023-05-15T06:25:41.108Z,96.21
2023-05-15T06:26:42.854Z,95.92
2023-05-15T06:27:45.574Z,96.00
2023-05-15T06:28:47.403Z,96.00
2023-05-15T06:29:50.115Z,95.99
2023-05-15T06:30:52.316Z,95.91
2023-05-15T06:31:55.092Z,95.67
2023-05-15T06:32:56.975Z,95.23
2023-05-15T06:33:59.772Z,94.83
2023-05-15T06:35:01.627Z,95.08
2023-05-15T06:36:04.654Z,95.10
2023-05-15T06:37:06.434Z,95.72
2023-05-15T06:38:09.236Z,96.30
2023-05-15T06:39:12.349Z,96.16
2023-05-15T06:40:15.234Z,96.25
2023-05-15T06:41:17.075Z,96.12
2023-05-15T06:42:20.390Z,95.27
2023-05-15T06:43:22.228Z,95.34
2023-05-15T06:44:25.710Z,96.51
2023-05-15T06:45:29.165Z,96.83
2023-05-15T06:46:32.105Z,95.79
2023-05-15T06:47:35.011Z,94.64
2023-05-15T06:48:36.885Z,93.94
2023-05-15T06:49:39.780Z,93.53
2023-05-15T06:50:41.594Z,93.61
2023-05-15T06:51:44.404Z,93.87
2023-05-15T06:52:46.178Z,93.85
2023-05-15T06:53:48.997Z,93.96
2023-05-15T06:54:52.593Z,93.27
2023-05-15T06:55:55.361Z,93.66
2023-05-15T06:56:58.206Z,93.75
2023-05-15T06:58:00.100Z,94.41
2023-05-15T06:59:02.857Z,94.81
2023-05-15T07:00:06.987Z,93.85
2023-05-15T07:01:09.027Z,93.78
2023-05-15T07:02:12.127Z,93.68
2023-05-15T07:03:16.648Z,93.43
2023-05-15T07:04:18.606Z,94.03
2023-05-15T07:05:21.842Z,94.30
2023-05-15T07:06:23.969Z,94.64
2023-05-15T07:07:26.808Z,93.21
2023-05-15T07:08:29.548Z,92.15
2023-05-15T07:09:31.449Z,92.16
2023-05-15T07:10:35.718Z,92.30
2023-05-15T07:11:38.829Z,92.47
2023-05-15T07:12:41.813Z,92.05
2023-05-15T07:13:43.890Z,91.88
2023-05-15T07:14:46.698Z,92.57
2023-05-15T07:15:48.580Z,92.98
2023-05-15T07:16:51.455Z,92.99
2023-05-15T07:17:54.579Z,93.23
2023-05-15T07:18:56.555Z,93.29
2023-05-15T07:19:59.359Z,93.97
2023-05-15T07:21:02.561Z,93.67
2023-05-15T07:22:06.068Z,93.56
2023-05-15T07:23:08.031Z,93.73
2023-05-15T07:24:10.837Z,93.22
2023-05-15T07:25:14.550Z,93.24
2023-05-15T07:26:27.925Z,93.78
2023-05-15T07:27:34.209Z,94.35
2023-05-15T07:28:37.581Z,94.56
2023-05-15T07:29:39.358Z,94.61
2023-05-15T07:30:42.371Z,95.22
2023-05-15T07:31:44.731Z,94.71
2023-05-15T07:32:47.852Z,94.22
2023-05-15T07:33:49.801Z,94.15
2023-05-15T07:34:53.441Z,93.94
2023-05-15T07:35:55.230Z,94.61
2023-05-15T07:36:58.021Z,94.49
2023-05-15T07:37:59.948Z,93.71
2023-05-15T07:39:02.893Z,93.83
2023-05-15T07:40:06.171Z,93.56
2023-05-15T07:41:09.035Z,94.27
2023-05-15T07:42:12.583Z,94.13
2023-05-15T07:43:15.336Z,93.68
2023-05-15T07:44:17.266Z,94.17
2023-05-15T07:45:20.274Z,93.27
2023-05-15T07:46:22.187Z,92.67
2023-05-15T07:47:25.513Z,92.47
2023-05-15T07:48:27.372Z,93.78
2023-05-15T07:49:31.314Z,94.29
2023-05-15T07:50:33.510Z,94.69
2023-05-15T07:51:36.438Z,94.15
2023-05-15T07:52:38.209Z,93.47
2023-05-15T07:53:41.179Z,93.62
2023-05-15T07:54:44.386Z,94.26
2023-05-15T07:55:46.454Z,94.67
2023-05-15T07:56:49.267Z,93.06
2023-05-15T07:57:54.110Z,92.89
2023-05-15T07:58:57.900Z,93.14
2023-05-15T08:00:02.448Z,93.42
2023-05-15T08:01:14.471Z,93.92
2023-05-15T08:02:16.367Z,93.62
2023-05-15T08:03:19.455Z,93.22
2023-05-15T08:04:22.450Z,93.35
2023-05-15T08:05:24.814Z,93.06
2023-05-15T08:06:28.051Z,92.53
2023-05-15T08:07:31.333Z,92.15
2023-05-15T08:08:34.182Z,92.11
2023-05-15T08:09:36.996Z,92.24
2023-05-15T08:10:38.792Z,92.38
2023-05-15T08:11:41.602Z,92.36
2023-05-15T08:12:46.487Z,91.79
2023-05-15T08:13:50.762Z,91.56
2023-05-15T08:14:53.731Z,91.50
2023-05-15T08:15:56.643Z,92.01
2023-05-15T08:16:58.552Z,92.54
2023-05-15T08:18:01.671Z,92.59
2023-05-15T08:19:05.618Z,92.48
2023-05-15T08:20:09.386Z,92.36
2023-05-15T08:21:11.289Z,92.12
2023-05-15T08:22:14.098Z,92.03
2023-05-15T08:23:15.920Z,92.39
2023-05-15T08:24:18.695Z,93.13
2023-05-15T08:25:20.694Z,93.63
2023-05-15T08:26:23.751Z,93.74
2023-05-15T08:27:26.896Z,93.68
2023-05-15T08:28:29.901Z,93.91
2023-05-15T08:29:33.186Z,93.70
2023-05-15T08:30:36.187Z,93.67
2023-05-15T08:31:39.084Z,94.09
2023-05-15T08:32:42.976Z,93.95
2023-05-15T08:33:44.738Z,94.20
2023-05-15T08:34:47.497Z,94.25
2023-05-15T08:35:50.478Z,94.63
2023-05-15T08:36:52.971Z,94.97
2023-05-15T08:37:55.765Z,95.78
2023-05-15T08:38:57.566Z,95.89
2023-05-15T08:40:00.354Z,95.62
2023-05-15T08:41:08.376Z,95.53
2023-05-15T08:42:16.026Z,95.57
2023-05-15T08:43:18.315Z,95.31
2023-05-15T08:44:22.388Z,95.13
2023-05-15T08:45:26.269Z,95.63
2023-05-15T08:46:29.650Z,96.23
2023-05-15T08:47:32.382Z,96.85
2023-05-15T08:48:38.186Z,96.18
2023-05-15T08:49:47.487Z,95.54
2023-05-15T08:50:49.848Z,96.14
2023-05-15T08:51:53.149Z,96.14
2023-05-15T08:52:58.391Z,96.94
2023-05-15T08:54:00.584Z,97.28
2023-05-15T08:55:04.321Z,98.12
2023-05-15T08:56:07.391Z,97.82
2023-05-15T08:57:09.848Z,97.00
2023-05-15T08:58:13.111Z,97.23
2023-05-15T08:59:14.886Z,97.25
2023-05-15T09:00:20.938Z,97.74
2023-05-15T09:01:25.232Z,98.04
2023-05-15T09:02:27.115Z,97.55
2023-05-15T09:03:30.131Z,97.61
2023-05-15T09:04:33.477Z,97.84
2023-05-15T09:05:37.368Z,98.29
2023-05-15T09:06:42.119Z,98.17
2023-05-15T09:07:46.291Z,98.08
2023-05-15T09:08:49.568Z,99.09
2023-05-15T09:09:51.583Z,99.58
2023-05-15T09:10:54.427Z,99.13
2023-05-15T09:11:56.433Z,98.21
2023-05-15T09:13:00.453Z,97.52
2023-05-15T09:14:02.203Z,97.75
2023-05-15T09:15:12.513Z,97.22
2023-05-15T09:16:14.370Z,96.33
2023-05-15T09:17:18.566Z,96.02
2023-05-15T09:18:21.418Z,96.22
2023-05-15T09:19:23.286Z,96.54
2023-05-15T09:20:28.654Z,96.90
2023-05-15T09:21:31.467Z,96.61
2023-05-15T09:22:35.571Z,96.89
2023-05-15T09:23:38.276Z,97.09
2023-05-15T09:24:40.046Z,95.55
2023-05-15T09:25:44.767Z,95.78
2023-05-15T09:26:48.010Z,96.70
2023-05-15T09:27:50.795Z,96.20
2023-05-15T09:28:58.357Z,95.49
2023-05-15T09:30:10.137Z,96.27
2023-05-15T09:31:13.088Z,97.51
2023-05-15T09:32:16.419Z,97.86
2023-05-15T09:33:28.696Z,97.29
2023-05-15T09:34:31.293Z,97.59
2023-05-15T09:35:35.128Z,96.15
2023-05-15T09:36:43.891Z,96.02
2023-05-15T09:37:45.796Z,97.27
2023-05-15T09:38:49.727Z,97.19
2023-05-15T09:39:51.642Z,96.12
2023-05-15T09:41:02.777Z,96.21
2023-05-15T09:42:08.976Z,96.56
2023-05-15T09:43:12.703Z,96.80
2023-05-15T09:44:26.034Z,96.56
2023-05-15T09:45:30.122Z,97.29
2023-05-15T09:46:35.784Z,96.57
2023-05-15T09:47:38.939Z,96.36
2023-05-15T09:48:43.882Z,95.93
2023-05-15T09:49:46.817Z,96.19
2023-05-15T09:50:48.768Z,96.16
2023-05-15T09:51:51.795Z,95.35
2023-05-15T09:52:53.842Z,95.54
2023-05-15T09:53:56.771Z,95.67
2023-05-15T09:54:59.581Z,96.65
2023-05-15T09:56:03.481Z,97.01
2023-05-15T09:57:09.449Z,96.16
2023-05-15T09:58:16.716Z,95.75
2023-05-15T09:59:21.640Z,95.64
2023-05-15T10:00:24.001Z,95.57
2023-05-15T10:01:27.578Z,95.56
2023-05-15T10:02:32.580Z,95.04
2023-05-15T10:03:35.521Z,95.11
2023-05-15T10:04:38.841Z,95.20
2023-05-15T10:05:43.522Z,95.60
2023-05-15T10:06:48.039Z,95.76
2023-05-15T10:07:54.399Z,95.73
2023-05-15T10:08:57.738Z,95.63
2023-05-15T10:10:00.256Z,95.31
2023-05-15T10:11:04.591Z,94.97
2023-05-15T10:12:09.499Z,94.58
2023-05-15T10:13:12.642Z,93.73
2023-05-15T10:14:15.827Z,93.42
2023-05-15T10:15:18.186Z,94.56
2023-05-15T10:16:22.389Z,94.95
2023-05-15T10:17:24.816Z,95.02
2023-05-15T10:18:29.784Z,93.52
2023-05-15T10:19:32.741Z,94.03
2023-05-15T10:20:36.383Z,94.68
2023-05-15T10:21:40.403Z,95.25
2023-05-15T10:22:46.451Z,94.06
2023-05-15T10:23:51.064Z,94.25
2023-05-15T10:24:58.702Z,94.19
2023-05-15T10:26:04.127Z,94.83
2023-05-15T10:27:06.805Z,93.89
2023-05-15T10:28:11.230Z,94.17
2023-05-15T10:29:15.507Z,94.27
2023-05-15T10:30:17.492Z,94.17
2023-05-15T10:31:21.343Z,94.10
2023-05-15T10:32:24.345Z,93.67
2023-05-15T10:33:27.804Z,93.32
2023-05-15T10:34:30.923Z,94.02
2023-05-15T10:35:35.163Z,94.25
2023-05-15T10:36:38.743Z,93.90
2023-05-15T10:37:41.682Z,93.43
2023-05-15T10:38:43.994Z,93.36
2023-05-15T10:39:47.300Z,93.52
2023-05-15T10:40:49.667Z,93.09
2023-05-15T10:41:52.375Z,93.32
2023-05-15T10:42:56.539Z,93.07
2023-05-15T10:44:00.406Z,93.38
2023-05-15T10:45:03.133Z,93.16
2023-05-15T10:46:06.424Z,93.18
2023-05-15T10:47:09.613Z,94.13
2023-05-15T10:48:12.367Z,93.82
2023-05-15T10:49:15.675Z,94.22
2023-05-15T10:50:19.287Z,93.65
2023-05-15T10:51:25.366Z,94.01
2023-05-15T10:52:29.514Z,94.92
2023-05-15T10:53:32.623Z,95.04
2023-05-15T10:54:36.063Z,95.58
2023-05-15T10:55:39.143Z,94.56
2023-05-15T10:56:43.224Z,94.98
2023-05-15T10:57:45.875Z,95.06
2023-05-15T10:58:49.558Z,94.52
2023-05-15T10:59:52.445Z,94.33
2023-05-15T11:00:55.225Z,93.93
2023-05-15T11:01:57.048Z,93.93
2023-05-15T11:03:00.990Z,94.22
2023-05-15T11:04:08.026Z,94.15
2023-05-15T11:05:12.178Z,94.70
2023-05-15T11:06:14.006Z,94.70
2023-05-15T11:07:18.186Z,95.07
2023-05-15T11:08:27.713Z,96.19
2023-05-15T11:09:37.708Z,97.25
2023-05-15T11:10:39.584Z,97.65
2023-05-15T11:11:56.907Z,98.40
2023-05-15T11:13:00.299Z,98.91
2023-05-15T11:14:14.640Z,98.89
2023-05-15T11:15:21.941Z,99.76
2023-05-15T11:16:58.133Z,100.00
2023-05-15T11:18:04.956Z,100.00
2023-05-15T11:19:22.908Z,100.00
2023-05-15T11:20:35.048Z,100.00
2023-05-15T11:21:46.248Z,100.00
2023-05-15T11:22:59.240Z,100.00
2023-05-15T11:24:05.630Z,100.00
2023-05-15T11:25:10.321Z,100.00
2023-05-15T11:26:13.718Z,99.98
2023-05-15T11:27:19.184Z,99.16
2023-05-15T11:28:23.026Z,98.75
2023-05-15T11:29:24.807Z,98.16
2023-05-15T11:30:36.916Z,96.11
2023-05-15T11:31:38.874Z,93.86
2023-05-15T11:32:52.482Z,93.05
2023-05-15T11:33:55.425Z,93.21
2023-05-15T11:35:00.053Z,94.20
2023-05-15T11:36:06.058Z,93.70
2023-05-15T11:37:11.154Z,94.25
2023-05-15T11:38:16.252Z,94.10
2023-05-15T11:39:24.252Z,92.98
2023-05-15T11:40:28.521Z,91.88
2023-05-15T11:41:32.799Z,90.60
2023-05-15T11:42:34.696Z,89.51
2023-05-15T11:43:37.458Z,90.00
2023-05-15T11:44:40.782Z,90.02
2023-05-15T11:45:43.643Z,90.01
2023-05-15T11:46:47.246Z,89.78
2023-05-15T11:47:49.729Z,89.99
2023-05-15T11:48:52.928Z,89.87
2023-05-15T11:49:54.880Z,89.66
2023-05-15T11:50:57.714Z,89.65
2023-05-15T11:51:59.788Z,89.73
2023-05-15T11:53:06.917Z,89.70
2023-05-15T11:54:11.644Z,89.43
2023-05-15T11:55:15.341Z,89.53
2023-05-15T11:56:22.803Z,89.37
2023-05-15T11:57:24.634Z,89.64
2023-05-15T11:58:27.941Z,89.50
2023-05-15T11:59:31.984Z,89.26
2023-05-15T12:00:33.868Z,90.18
2023-05-15T12:01:41.193Z,89.34
2023-05-15T12:02:43.129Z,89.76
2023-05-15T12:03:48.314Z,90.05
2023-05-15T12:04:50.515Z,90.99
2023-05-15T12:05:59.677Z,91.97
2023-05-15T12:07:03.777Z,92.18
2023-05-15T12:08:10.569Z,91.26
2023-05-15T12:09:17.017Z,92.50
2023-05-15T12:10:20.212Z,92.52
2023-05-15T12:11:23.463Z,93.29
2023-05-15T12:12:27.657Z,92.94
2023-05-15T12:13:31.364Z,91.84
2023-05-15T12:14:34.590Z,91.95
2023-05-15T12:15:37.929Z,90.43
2023-05-15T12:16:40.852Z,88.63
2023-05-15T12:17:45.222Z,88.04
2023-05-15T12:18:48.526Z,88.07
2023-05-15T12:19:51.582Z,88.74
2023-05-15T12:20:55.491Z,88.83
2023-05-15T12:21:58.295Z,87.85
2023-05-15T12:23:00.129Z,87.08
2023-05-15T12:24:08.237Z,86.65
2023-05-15T12:25:12.234Z,86.08
2023-05-15T12:26:16.707Z,85.53
2023-05-15T12:27:18.784Z,85.29
2023-05-15T12:28:22.000Z,83.92
2023-05-15T12:29:25.073Z,83.95
2023-05-15T12:30:28.099Z,83.74
2023-05-15T12:31:30.172Z,83.46
2023-05-15T12:32:35.160Z,83.14
2023-05-15T12:33:37.158Z,83.64
2023-05-15T12:34:40.059Z,84.46
2023-05-15T12:35:43.404Z,84.64
2023-05-15T12:36:46.161Z,84.62
2023-05-15T12:37:48.957Z,84.44
2023-05-15T12:38:51.244Z,83.90
2023-05-15T12:39:55.213Z,84.29
2023-05-15T12:40:57.989Z,83.85
2023-05-15T12:42:02.253Z,84.04
2023-05-15T12:43:06.329Z,84.05
2023-05-15T12:44:17.156Z,83.95
2023-05-15T12:45:20.901Z,84.17
2023-05-15T12:46:24.435Z,84.26
2023-05-15T12:47:27.763Z,84.39
2023-05-15T12:48:32.203Z,84.39
2023-05-15T12:49:36.938Z,84.81
2023-05-15T12:50:39.790Z,84.90
2023-05-15T12:51:45.905Z,84.78
2023-05-15T12:52:50.960Z,85.00
2023-05-15T12:53:53.838Z,85.50
2023-05-15T12:54:56.063Z,85.86
2023-05-15T12:55:59.177Z,85.96
2023-05-15T12:57:03.370Z,86.43
2023-05-15T12:58:08.306Z,87.14
2023-05-15T12:59:11.741Z,86.83
2023-05-15T13:00:17.188Z,87.44
2023-05-15T13:01:26.509Z,88.51
2023-05-15T13:03:09.007Z,90.70
2023-05-15T13:04:23.775Z,91.38
2023-05-15T13:05:26.958Z,88.54
2023-05-15T13:06:44.922Z,86.01
2023-05-15T13:07:49.499Z,84.98
2023-05-15T13:08:52.636Z,84.35
2023-05-15T13:10:06.676Z,83.56
2023-05-15T13:11:12.654Z,82.61
2023-05-15T13:12:19.057Z,82.52
2023-05-15T13:13:22.302Z,82.54
2023-05-15T13:14:27.208Z,82.12
2023-05-15T13:15:31.947Z,81.92
2023-05-15T13:16:37.608Z,81.96
2023-05-15T13:17:40.126Z,81.70
2023-05-15T13:18:45.785Z,82.05
2023-05-15T13:19:48.556Z,82.38
2023-05-15T13:20:52.627Z,82.47
2023-05-15T13:21:55.387Z,82.87
2023-05-15T13:22:57.136Z,82.29
2023-05-15T13:23:59.980Z,81.36
2023-05-15T13:25:02.036Z,81.92
2023-05-15T13:26:04.973Z,81.83
2023-05-15T13:27:07.796Z,82.15
2023-05-15T13:28:12.371Z,83.02
2023-05-15T13:29:14.200Z,82.32
2023-05-15T13:30:17.954Z,82.29
2023-05-15T13:31:21.030Z,82.52
2023-05-15T13:32:23.962Z,83.19
2023-05-15T13:33:26.778Z,83.02
2023-05-15T13:34:28.552Z,83.33
2023-05-15T13:35:31.959Z,83.00
2023-05-15T13:36:34.934Z,83.04
2023-05-15T13:37:37.114Z,82.78
2023-05-15T13:38:40.252Z,83.33
2023-05-15T13:39:42.465Z,82.89
2023-05-15T13:40:45.321Z,83.51
2023-05-15T13:41:48.111Z,84.48
2023-05-15T13:42:51.097Z,85.17